createdAt,value
2022-10-01T00:01:26.871Z,14.11
2022-10-01T00:03:53.774Z,14.06
2022-10-01T00:06:21.311Z,13.93
2022-10-01T00:08:50.754Z,13.93
2022-10-01T00:11:21.768Z,13.98
2022-10-01T00:13:49.615Z,13.95
2022-10-01T00:16:18.828Z,14.11
2022-10-01T00:18:46.908Z,14.17
2022-10-01T00:21:15.527Z,13.88
2022-10-01T00:23:42.585Z,13.96
2022-10-01T00:26:11.876Z,13.98
2022-10-01T00:28:40.480Z,14.12
2022-10-01T00:31:07.924Z,14.11
2022-10-01T00:33:37.011Z,13.96
2022-10-01T00:36:03.961Z,13.89
2022-10-01T00:38:31.575Z,13.74
2022-10-01T00:40:58.229Z,13.75
2022-10-01T00:43:26.763Z,13.67
2022-10-01T00:45:58.906Z,13.74
2022-10-01T00:48:30.487Z,13.50
2022-10-01T00:50:59.614Z,13.57
2022-10-01T00:53:26.965Z,13.75
2022-10-01T00:55:56.190Z,13.58
2022-10-01T00:58:25.085Z,13.69
2022-10-01T01:00:55.898Z,13.66
2022-10-01T01:03:22.971Z,13.45
2022-10-01T01:05:49.555Z,13.53
2022-10-01T01:08:17.045Z,13.41
2022-10-01T01:10:53.331Z,13.40
2022-10-01T01:13:30.295Z,13.25
2022-10-01T01:16:06.406Z,13.26
2022-10-01T01:18:41.019Z,13.29
2022-10-01T01:21:26.789Z,13.32
2022-10-01T01:24:29.959Z,13.41
2022-10-01T01:27:10.630Z,13.19
2022-10-01T01:29:42.363Z,13.27
2022-10-01T01:32:14.846Z,13.29
2022-10-01T01:34:46.763Z,12.87
2022-10-01T01:37:17.464Z,13.07
2022-10-01T01:39:48.821Z,12.76
2022-10-01T01:42:20.372Z,12.87
2022-10-01T01:44:51.301Z,12.60
2022-10-01T01:47:21.929Z,12.85
2022-10-01T01:49:50.213Z,12.83
2022-10-01T01:52:17.489Z,12.78
2022-10-01T01:54:45.688Z,12.55
2022-10-01T01:57:13.194Z,12.73
2022-10-01T01:59:40.769Z,12.50
2022-10-01T02:02:12.293Z,12.62
2022-10-01T02:04:43.850Z,12.42
2022-10-01T02:07:42.958Z,12.54
2022-10-01T02:10:20.122Z,12.48
2022-10-01T02:13:00.083Z,12.57
2022-10-01T02:15:35.461Z,12.62
2022-10-01T02:18:11.762Z,12.69
2022-10-01T02:20:42.548Z,12.60
2022-10-01T02:23:14.301Z,12.55
2022-10-01T02:25:44.867Z,12.76
2022-10-01T02:28:15.050Z,12.89
2022-10-01T02:30:43.378Z,12.54
2022-10-01T02:33:14.836Z,12.77
2022-10-01T02:35:43.159Z,12.76
2022-10-01T02:38:12.162Z,12.73
2022-10-01T02:40:42.290Z,12.83
2022-10-01T02:43:14.092Z,12.91
2022-10-01T02:45:45.833Z,13.05
2022-10-01T02:48:14.505Z,13.02
2022-10-01T02:50:45.333Z,13.12
2022-10-01T02:53:20.101Z,12.90
2022-10-01T02:55:49.029Z,12.90
2022-10-01T02:58:17.470Z,12.78
2022-10-01T03:00:44.199Z,12.52
2022-10-01T03:03:11.355Z,12.70
2022-10-01T03:05:40.480Z,12.91
2022-10-01T03:08:07.175Z,12.81
2022-10-01T03:10:34.021Z,12.82
2022-10-01T03:13:00.942Z,12.74
2022-10-01T03:15:28.545Z,12.64
2022-10-01T03:17:55.074Z,12.83
2022-10-01T03:20:22.869Z,12.74
2022-10-01T03:22:53.335Z,12.78
2022-10-01T03:25:19.928Z,12.85
2022-10-01T03:27:46.802Z,12.86
2022-10-01T03:30:13.374Z,12.71
2022-10-01T03:32:40.283Z,12.89
2022-10-01T03:35:07.754Z,12.84
2022-10-01T03:37:34.280Z,12.83
2022-10-01T03:40:02.487Z,12.91
2022-10-01T03:42:29.020Z,12.91
2022-10-01T03:44:56.050Z,12.73
2022-10-01T03:47:23.670Z,12.79
2022-10-01T03:49:50.304Z,12.63
2022-10-01T03:52:17.199Z,12.58
2022-10-01T03:54:44.629Z,12.81
2022-10-01T03:57:12.617Z,12.66
2022-10-01T03:59:39.441Z,12.71
2022-10-01T04:02:06.207Z,12.75
2022-10-01T04:04:35.584Z,12.56
2022-10-01T04:07:02.277Z,12.64
2022-10-01T04:09:29.915Z,12.78
2022-10-01T04:11:57.355Z,12.61
2022-10-01T04:14:25.812Z,12.78
2022-10-01T04:16:52.768Z,12.85
2022-10-01T04:19:19.585Z,12.81
2022-10-01T04:21:46.176Z,13.03
2022-10-01T04:24:12.675Z,13.22
2022-10-01T04:26:39.303Z,13.31
2022-10-01T04:29:06.081Z,13.02
2022-10-01T04:31:34.309Z,13.10
2022-10-01T04:34:01.776Z,13.16
2022-10-01T04:36:28.769Z,13.17
2022-10-01T04:39:01.784Z,12.98
2022-10-01T04:41:31.658Z,13.11
2022-10-01T04:43:59.056Z,13.05
2022-10-01T04:46:27.774Z,13.05
2022-10-01T04:48:55.836Z,13.08
2022-10-01T04:51:24.643Z,13.25
2022-10-01T04:53:53.949Z,13.24
2022-10-01T04:56:20.859Z,13.16
2022-10-01T04:58:47.594Z,13.26
2022-10-01T05:01:14.177Z,13.37
2022-10-01T05:03:42.564Z,13.34
2022-10-01T05:06:10.564Z,13.36
2022-10-01T05:08:37.099Z,13.39
2022-10-01T05:11:03.710Z,13.19
2022-10-01T05:13:30.554Z,13.24
2022-10-01T05:15:57.399Z,13.43
2022-10-01T05:18:26.474Z,13.22
2022-10-01T05:20:53.165Z,13.24
2022-10-01T05:23:21.449Z,13.51
2022-10-01T05:25:51.171Z,13.28
2022-10-01T05:28:22.182Z,13.53
2022-10-01T05:30:49.276Z,13.37
2022-10-01T05:33:16.718Z,13.55
2022-10-01T05:35:44.796Z,13.34
2022-10-01T05:38:11.442Z,13.36
2022-10-01T05:40:39.513Z,13.73
2022-10-01T05:43:06.027Z,13.59
2022-10-01T05:45:32.740Z,13.84
2022-10-01T05:48:00.832Z,13.82
2022-10-01T05:50:27.637Z,13.67
2022-10-01T05:52:54.328Z,13.85
2022-10-01T05:55:22.097Z,13.73
2022-10-01T05:57:58.121Z,13.64
2022-10-01T06:00:25.723Z,13.84
2022-10-01T06:02:54.241Z,14.03
2022-10-01T06:05:23.440Z,14.22
2022-10-01T06:07:50.751Z,14.12
2022-10-01T06:10:18.133Z,14.23
2022-10-01T06:12:44.906Z,14.08
2022-10-01T06:15:13.533Z,14.08
2022-10-01T06:17:40.193Z,14.08
2022-10-01T06:20:07.887Z,14.01
2022-10-01T06:22:34.445Z,13.87
2022-10-01T06:25:00.968Z,13.85
2022-10-01T06:27:27.499Z,14.17
2022-10-01T06:29:54.311Z,13.98
2022-10-01T06:32:22.516Z,14.18
2022-10-01T06:34:49.136Z,14.27
2022-10-01T06:37:15.729Z,14.33
2022-10-01T06:39:42.228Z,14.40
2022-10-01T06:42:09.069Z,14.49
2022-10-01T06:44:35.624Z,14.32
2022-10-01T06:47:04.889Z,14.37
2022-10-01T06:49:33.484Z,14.47
2022-10-01T06:52:00.052Z,14.63
2022-10-01T06:54:26.586Z,14.67
2022-10-01T06:56:53.199Z,14.76
2022-10-01T06:59:19.965Z,14.62
2022-10-01T07:01:51.893Z,14.76
2022-10-01T07:04:22.229Z,14.87
2022-10-01T07:06:50.210Z,14.91
2022-10-01T07:09:16.755Z,14.77
2022-10-01T07:11:43.343Z,14.94
2022-10-01T07:14:09.988Z,15.03
2022-10-01T07:16:37.875Z,15.06
2022-10-01T07:19:04.418Z,15.02
2022-10-01T07:21:31.946Z,15.05
2022-10-01T07:24:00.105Z,15.11
2022-10-01T07:26:26.628Z,15.22
2022-10-01T07:28:53.130Z,15.15
2022-10-01T07:31:19.870Z,15.16
2022-10-01T07:33:46.532Z,15.25
2022-10-01T07:36:13.037Z,15.33
2022-10-01T07:38:39.776Z,15.44
2022-10-01T07:41:07.693Z,15.34
2022-10-01T07:43:34.515Z,15.58
2022-10-01T07:46:01.077Z,15.58
2022-10-01T07:48:27.900Z,15.22
2022-10-01T07:50:54.761Z,15.34
2022-10-01T07:53:23.787Z,15.38
2022-10-01T07:55:50.363Z,15.71
2022-10-01T07:58:18.499Z,15.99
2022-10-01T08:00:45.651Z,15.94
2022-10-01T08:03:12.265Z,16.09
2022-10-01T08:05:41.754Z,16.06
2022-10-01T08:08:09.452Z,16.52
2022-10-01T08:10:38.234Z,16.77
2022-10-01T08:13:09.772Z,17.53
2022-10-01T08:15:39.119Z,18.12
2022-10-01T08:18:05.669Z,18.26
2022-10-01T08:20:32.268Z,17.95
2022-10-01T08:23:02.191Z,17.93
2022-10-01T08:25:28.981Z,18.18
2022-10-01T08:27:55.641Z,18.57
2022-10-01T08:30:22.214Z,18.41
2022-10-01T08:32:54.418Z,18.26
2022-10-01T08:35:21.170Z,18.28
2022-10-01T08:37:47.705Z,18.42
2022-10-01T08:40:14.552Z,18.47
2022-10-01T08:42:53.296Z,19.28
2022-10-01T08:45:25.293Z,19.83
2022-10-01T08:48:00.522Z,19.58
2022-10-01T08:50:43.091Z,20.56
2022-10-01T08:53:16.740Z,20.25
2022-10-01T08:55:44.291Z,20.01
2022-10-01T08:58:14.707Z,19.50
2022-10-01T09:00:45.299Z,19.22
2022-10-01T09:03:15.385Z,18.96
2022-10-01T09:05:55.309Z,18.84
2022-10-01T09:08:33.996Z,18.48
2022-10-01T09:11:04.570Z,19.13
2022-10-01T09:13:53.409Z,19.11
2022-10-01T09:16:29.387Z,19.19
2022-10-01T09:19:12.472Z,19.35
2022-10-01T09:21:50.546Z,19.56
2022-10-01T09:24:25.684Z,19.17
2022-10-01T09:26:53.206Z,18.82
2022-10-01T09:29:24.701Z,18.40
2022-10-01T09:31:53.837Z,18.26
2022-10-01T09:34:30.218Z,18.19
2022-10-01T09:37:03.124Z,17.88
2022-10-01T09:39:38.039Z,17.73
2022-10-01T09:42:04.982Z,17.90
2022-10-01T09:44:33.825Z,17.80
2022-10-01T09:47:00.422Z,17.69
2022-10-01T09:49:32.688Z,18.28
2022-10-01T09:52:04.070Z,18.77
2022-10-01T09:54:34.958Z,19.28
2022-10-01T09:57:08.027Z,19.34
2022-10-01T09:59:40.172Z,19.42
2022-10-01T10:02:16.270Z,19.47
2022-10-01T10:04:44.532Z,19.57
2022-10-01T10:07:17.408Z,19.29
2022-10-01T10:09:44.392Z,19.49
2022-10-01T10:12:26.841Z,19.63
2022-10-01T10:14:55.193Z,20.23
2022-10-01T10:17:22.197Z,20.53
2022-10-01T10:19:51.836Z,20.66
2022-10-01T10:22:22.088Z,20.77
2022-10-01T10:24:49.392Z,20.84
2022-10-01T10:27:25.971Z,20.97
2022-10-01T10:30:02.916Z,21.15
2022-10-01T10:32:29.984Z,21.41
2022-10-01T10:35:03.363Z,21.64
2022-10-01T10:37:32.138Z,21.62
2022-10-01T10:39:58.806Z,21.73
2022-10-01T10:42:25.749Z,21.98
2022-10-01T10:44:55.924Z,21.86
2022-10-01T10:47:23.578Z,22.55
2022-10-01T10:49:54.215Z,22.51
2022-10-01T10:52:27.985Z,21.66
2022-10-01T10:54:54.700Z,20.76
2022-10-01T10:57:24.951Z,20.68
2022-10-01T10:59:56.929Z,20.82
2022-10-01T11:02:25.357Z,21.42
2022-10-01T11:04:54.806Z,21.75
2022-10-01T11:07:25.380Z,21.75
2022-10-01T11:10:03.281Z,22.15
2022-10-01T11:12:42.993Z,21.69
2022-10-01T11:15:23.922Z,21.13
2022-10-01T11:18:36.642Z,21.29
2022-10-01T11:21:21.471Z,21.47
2022-10-01T11:24:02.446Z,21.27
2022-10-01T11:26:39.387Z,21.13
2022-10-01T11:29:19.275Z,21.60
2022-10-01T11:31:56.734Z,21.25
2022-10-01T11:34:46.344Z,20.90
2022-10-01T11:37:26.747Z,20.48
2022-10-01T11:39:58.812Z,20.64
2022-10-01T11:42:31.397Z,20.95
2022-10-01T11:45:03.056Z,21.66
2022-10-01T11:47:34.007Z,21.49
2022-10-01T11:50:04.719Z,21.37
2022-10-01T11:52:37.519Z,21.32
2022-10-01T11:55:18.619Z,21.55
2022-10-01T11:57:45.847Z,22.00
2022-10-01T12:00:14.231Z,21.89
2022-10-01T12:02:50.268Z,21.98
2022-10-01T12:05:20.917Z,21.79
2022-10-01T12:07:53.392Z,22.42
2022-10-01T12:10:34.979Z,22.22
2022-10-01T12:13:08.141Z,21.85
2022-10-01T12:15:43.274Z,21.90
2022-10-01T12:18:17.479Z,21.40
2022-10-01T12:20:48.143Z,21.70
2022-10-01T12:23:18.580Z,21.44
2022-10-01T12:25:52.311Z,21.55
2022-10-01T12:28:25.682Z,21.28
2022-10-01T12:31:00.195Z,21.14
2022-10-01T12:33:50.173Z,21.21
2022-10-01T12:36:25.348Z,20.74
2022-10-01T12:39:03.730Z,19.86
2022-10-01T12:41:52.150Z,19.19
2022-10-01T12:44:56.276Z,18.94
2022-10-01T12:47:39.204Z,18.72
2022-10-01T12:50:20.923Z,18.58
2022-10-01T12:52:59.148Z,18.67
2022-10-01T12:55:48.810Z,18.49
2022-10-01T12:58:30.402Z,18.54
2022-10-01T13:01:06.901Z,18.60
2022-10-01T13:03:59.861Z,18.61
2022-10-01T13:06:39.257Z,18.72
2022-10-01T13:09:16.169Z,18.74
2022-10-01T13:12:06.672Z,19.10
2022-10-01T13:14:37.977Z,19.19
2022-10-01T13:17:12.216Z,19.60
2022-10-01T13:19:45.844Z,19.88
2022-10-01T13:22:20.245Z,20.16
2022-10-01T13:24:55.529Z,20.30
2022-10-01T13:27:27.453Z,20.25
2022-10-01T13:30:00.369Z,20.07
2022-10-01T13:32:30.620Z,19.99
2022-10-01T13:34:58.648Z,19.75
2022-10-01T13:37:34.145Z,19.88
2022-10-01T13:40:01.069Z,20.24
2022-10-01T13:42:31.280Z,20.33
2022-10-01T13:45:40.223Z,21.00
2022-10-01T13:48:14.859Z,20.98
2022-10-01T13:50:55.433Z,20.96
2022-10-01T13:53:25.056Z,20.88
2022-10-01T13:55:53.274Z,20.23
2022-10-01T13:58:24.628Z,19.23
2022-10-01T14:00:54.923Z,19.12
2022-10-01T14:04:08.769Z,18.78
2022-10-01T14:06:41.224Z,19.04
2022-10-01T14:09:15.148Z,19.03
2022-10-01T14:11:45.377Z,18.92
2022-10-01T14:14:19.016Z,18.94
2022-10-01T14:16:47.999Z,18.81
2022-10-01T14:19:19.867Z,18.76
2022-10-01T14:22:09.957Z,18.51
2022-10-01T14:24:48.522Z,18.89
2022-10-01T14:27:21.447Z,19.10
2022-10-01T14:29:59.184Z,19.17
2022-10-01T14:32:37.318Z,19.22
2022-10-01T14:35:17.872Z,19.07
2022-10-01T14:37:45.132Z,19.02
2022-10-01T14:40:17.120Z,18.91
2022-10-01T14:42:44.079Z,19.05
2022-10-01T14:45:15.564Z,19.10
2022-10-01T14:47:43.661Z,19.01
2022-10-01T14:50:11.028Z,19.15
2022-10-01T14:52:47.881Z,19.52
2022-10-01T14:55:18.070Z,19.56
2022-10-01T14:57:47.446Z,19.49
2022-10-01T15:00:16.884Z,19.33
2022-10-01T15:02:49.295Z,19.30
2022-10-01T15:05:22.413Z,19.16
2022-10-01T15:07:49.435Z,18.99
2022-10-01T15:10:18.245Z,19.05
2022-10-01T15:12:46.815Z,19.04
2022-10-01T15:15:18.021Z,19.00
2022-10-01T15:17:44.928Z,18.77
2022-10-01T15:20:13.591Z,18.84
2022-10-01T15:22:41.957Z,18.88
2022-10-01T15:25:22.379Z,18.63
2022-10-01T15:27:50.563Z,18.50
2022-10-01T15:30:18.439Z,18.58
2022-10-01T15:32:46.127Z,18.20
2022-10-01T15:35:18.458Z,18.18
2022-10-01T15:37:50.040Z,18.44
2022-10-01T15:40:28.147Z,18.60
2022-10-01T15:43:21.941Z,18.48
2022-10-01T15:46:10.766Z,18.62
2022-10-01T15:48:37.340Z,18.48
2022-10-01T15:51:14.443Z,18.55
2022-10-01T15:53:41.228Z,18.38
2022-10-01T15:56:11.336Z,18.24
2022-10-01T15:58:46.796Z,18.35
2022-10-01T16:01:18.754Z,18.37
2022-10-01T16:03:54.704Z,18.38
2022-10-01T16:06:25.827Z,18.09
2022-10-01T16:09:00.551Z,18.28
2022-10-01T16:11:27.624Z,18.32
2022-10-01T16:14:19.587Z,18.26
2022-10-01T16:16:46.182Z,18.21
2022-10-01T16:19:23.016Z,18.06
2022-10-01T16:22:19.531Z,18.05
2022-10-01T16:24:49.446Z,17.88
2022-10-01T16:27:18.086Z,18.08
2022-10-01T16:29:54.535Z,18.05
2022-10-01T16:32:21.089Z,18.12
2022-10-01T16:34:47.887Z,18.22
2022-10-01T16:37:16.875Z,18.16
2022-10-01T16:39:43.563Z,18.21
2022-10-01T16:42:24.095Z,18.14
2022-10-01T16:44:51.146Z,18.09
2022-10-01T16:47:17.841Z,17.81
2022-10-01T16:49:51.434Z,17.74
2022-10-01T16:52:19.454Z,17.66
2022-10-01T16:54:46.042Z,17.59
2022-10-01T16:57:13.152Z,17.44
2022-10-01T16:59:39.893Z,17.37
2022-10-01T17:02:10.089Z,17.26
2022-10-01T17:04:36.699Z,17.12
2022-10-01T17:07:03.369Z,17.05
2022-10-01T17:09:31.561Z,17.17
2022-10-01T17:11:58.383Z,17.01
2022-10-01T17:14:24.885Z,17.03
2022-10-01T17:16:51.474Z,17.11
2022-10-01T17:19:18.227Z,17.04
2022-10-01T17:21:45.166Z,16.99
2022-10-01T17:24:12.232Z,16.95
2022-10-01T17:26:50.165Z,16.86
2022-10-01T17:29:17.100Z,16.81
2022-10-01T17:31:45.470Z,16.75
2022-10-01T17:34:12.361Z,16.63
2022-10-01T17:36:42.785Z,16.56
2022-10-01T17:39:09.403Z,16.42
2022-10-01T17:41:40.921Z,16.37
2022-10-01T17:44:07.546Z,16.30
2022-10-01T17:46:34.217Z,16.23
2022-10-01T17:49:01.700Z,16.09
2022-10-01T17:51:28.518Z,16.13
2022-10-01T17:53:55.060Z,16.15
2022-10-01T17:56:21.957Z,15.99
2022-10-01T17:58:53.183Z,15.96
2022-10-01T18:01:21.075Z,15.89
2022-10-01T18:03:52.442Z,15.86
2022-10-01T18:06:19.460Z,15.83
2022-10-01T18:09:00.943Z,15.64
2022-10-01T18:11:28.561Z,15.71
2022-10-01T18:13:56.829Z,15.81
2022-10-01T18:16:24.406Z,15.52
2022-10-01T18:21:41.313Z,15.75
2022-10-01T18:24:07.863Z,15.38
2022-10-01T18:26:36.004Z,15.46
2022-10-01T18:29:04.856Z,15.67
2022-10-01T18:31:35.649Z,15.57
2022-10-01T18:34:05.442Z,15.63
2022-10-01T18:36:41.857Z,15.55
2022-10-01T18:39:14.088Z,15.52
2022-10-01T18:41:41.619Z,15.43
2022-10-01T18:44:13.321Z,15.37
2022-10-01T18:46:51.924Z,15.43
2022-10-01T18:49:48.870Z,15.43
2022-10-01T18:52:27.483Z,15.39
2022-10-01T18:55:31.166Z,15.30
2022-10-01T18:58:14.075Z,15.23
2022-10-01T19:00:52.332Z,15.12
2022-10-01T19:03:40.574Z,15.09
2022-10-01T19:06:39.606Z,15.00
2022-10-01T19:09:19.853Z,15.00
2022-10-01T19:11:59.605Z,14.99
2022-10-01T19:14:48.041Z,14.91
2022-10-01T19:17:27.494Z,14.96
2022-10-01T19:20:06.938Z,14.91
2022-10-01T19:22:42.416Z,14.92
2022-10-01T19:25:19.956Z,14.93
2022-10-01T19:28:02.541Z,14.89
2022-10-01T19:30:38.660Z,14.83
2022-10-01T19:33:11.278Z,14.80
2022-10-01T19:35:42.857Z,14.85
2022-10-01T19:38:15.751Z,14.77
2022-10-01T19:40:48.434Z,14.75
2022-10-01T19:43:21.396Z,14.68
2022-10-01T19:45:54.433Z,14.79
2022-10-01T19:48:30.062Z,14.71
2022-10-01T19:51:06.864Z,14.68
2022-10-01T19:53:35.836Z,14.75
2022-10-01T19:56:04.020Z,14.68
2022-10-01T19:58:32.528Z,14.65
2022-10-01T20:01:02.730Z,14.76
2022-10-01T20:03:36.625Z,14.79
2022-10-01T20:06:10.885Z,14.74
2022-10-01T20:08:43.141Z,14.68
2022-10-01T20:11:13.107Z,14.60
2022-10-01T20:13:52.613Z,14.58
2022-10-01T20:16:26.696Z,14.46
2022-10-01T20:19:04.922Z,14.44
2022-10-01T20:21:51.862Z,14.42
2022-10-01T20:24:36.100Z,14.33
2022-10-01T20:27:12.455Z,14.34
2022-10-01T20:29:49.533Z,14.26
2022-10-01T20:32:22.519Z,14.26
2022-10-01T20:35:06.196Z,14.27
2022-10-01T20:37:53.000Z,14.30
2022-10-01T20:40:25.311Z,14.25
2022-10-01T20:43:01.435Z,14.17
2022-10-01T20:45:31.058Z,14.16
2022-10-01T20:48:02.709Z,14.17
2022-10-01T20:50:38.508Z,14.15
2022-10-01T20:53:21.823Z,14.07
2022-10-01T20:55:54.195Z,14.05
2022-10-01T20:58:24.300Z,13.97
2022-10-01T21:00:55.835Z,13.81
2022-10-01T21:03:29.322Z,13.89
2022-10-01T21:06:01.900Z,13.96
2022-10-01T21:08:38.647Z,13.97
2022-10-01T21:11:10.136Z,13.93
2022-10-01T21:13:42.447Z,13.91
2022-10-01T21:16:29.901Z,13.91
2022-10-01T21:19:07.098Z,13.92
2022-10-01T21:21:45.007Z,13.90
2022-10-01T21:24:37.660Z,13.86
2022-10-01T21:27:17.316Z,13.87
2022-10-01T21:30:07.665Z,13.87
2022-10-01T21:32:53.415Z,13.98
2022-10-01T21:35:29.169Z,14.09
2022-10-01T21:38:05.191Z,14.15
2022-10-01T21:40:43.636Z,14.31
2022-10-01T21:43:23.432Z,14.35
2022-10-01T21:45:56.714Z,14.44
2022-10-01T21:48:38.589Z,14.34
2022-10-01T21:51:15.489Z,14.33
2022-10-01T21:54:16.647Z,14.34
2022-10-01T21:56:58.333Z,14.21
2022-10-01T21:59:44.395Z,14.17
2022-10-01T22:02:26.765Z,14.06
2022-10-01T22:04:57.940Z,14.00
2022-10-01T22:07:31.182Z,13.98
2022-10-01T22:10:10.089Z,13.91
2022-10-01T22:12:40.165Z,13.90
2022-10-01T22:15:19.803Z,13.81
2022-10-01T22:17:47.767Z,13.90
2022-10-01T22:20:18.452Z,13.85
2022-10-01T22:22:47.394Z,13.82
2022-10-01T22:25:15.510Z,13.83
2022-10-01T22:27:47.472Z,13.72
2022-10-01T22:30:17.147Z,13.71
2022-10-01T22:32:49.503Z,13.80
2022-10-01T22:35:20.613Z,13.79
2022-10-01T22:37:52.115Z,13.94
2022-10-01T22:40:24.862Z,14.00
2022-10-01T22:42:58.475Z,14.11
2022-10-01T22:45:34.238Z,14.09
2022-10-01T22:48:14.519Z,14.35
2022-10-01T22:50:51.919Z,14.40
2022-10-01T22:53:37.090Z,14.55
2022-10-01T22:56:05.159Z,14.58
2022-10-01T22:58:54.704Z,14.70
2022-10-01T23:01:32.672Z,14.73
2022-10-01T23:04:19.696Z,14.78
2022-10-01T23:06:52.891Z,14.79
2022-10-01T23:09:25.267Z,14.68
2022-10-01T23:12:00.780Z,14.45
2022-10-01T23:14:52.524Z,14.36
2022-10-01T23:17:25.390Z,14.21
2022-10-01T23:20:05.109Z,14.23
2022-10-01T23:22:44.467Z,14.20
2022-10-01T23:25:18.795Z,14.10
2022-10-01T23:28:07.242Z,14.08
2022-10-01T23:30:45.347Z,14.08
2022-10-01T23:33:30.182Z,14.11
2022-10-01T23:36:04.308Z,14.03
2022-10-01T23:38:49.837Z,13.97
2022-10-01T23:41:23.285Z,14.00
2022-10-01T23:43:58.957Z,13.89
2022-10-01T23:46:30.153Z,13.93
2022-10-01T23:49:03.834Z,13.91
2022-10-01T23:51:35.585Z,13.88
2022-10-01T23:54:11.192Z,13.86
2022-10-01T23:56:44.405Z,13.82
2022-10-01T23:59:19.140Z,13.87
